sensor_id;sensor_type;location;lat;lon;timestamp;temperature;humidity
20831;DHT22;10576;53.556;9.868;2022-08-19T00:01:30;18.70;99.90
20831;DHT22;10576;53.556;9.868;2022-08-19T00:03:57;18.70;99.90
20831;DHT22;10576;53.556;9.868;2022-08-19T00:06:23;18.70;99.90
20831;DHT22;10576;53.556;9.868;2022-08-19T00:08:48;18.70;99.90
20831;DHT22;10576;53.556;9.868;2022-08-19T00:11:17;18.60;99.90
20831;DHT22;10576;53.556;9.868;2022-08-19T00:13:43;18.60;99.90
20831;DHT22;10576;53.556;9.868;2022-08-19T00:16:08;18.60;99.90
20831;DHT22;10576;53.556;9.868;2022-08-19T00:18:34;18.60;99.90
20831;DHT22;10576;53.556;9.868;2022-08-19T00:21:00;18.60;99.90
20831;DHT22;10576;53.556;9.868;2022-08-19T00:23:27;18.70;99.90
20831;DHT22;10576;53.556;9.868;2022-08-19T00:25:53;18.70;99.90
20831;DHT22;10576;53.556;9.868;2022-08-19T00:28:19;18.70;99.90
20831;DHT22;10576;53.556;9.868;2022-08-19T00:30:46;18.70;99.90
20831;DHT22;10576;53.556;9.868;2022-08-19T00:33:11;18.70;99.90
20831;DHT22;10576;53.556;9.868;2022-08-19T00:35:38;18.70;99.90
20831;DHT22;10576;53.556;9.868;2022-08-19T00:38:04;18.80;99.90
20831;DHT22;10576;53.556;9.868;2022-08-19T00:40:32;18.80;99.90
20831;DHT22;10576;53.556;9.868;2022-08-19T00:42:58;18.80;99.90
20831;DHT22;10576;53.556;9.868;2022-08-19T00:45:27;18.80;99.90
20831;DHT22;10576;53.556;9.868;2022-08-19T00:47:56;18.80;99.90
20831;DHT22;10576;53.556;9.868;2022-08-19T00:50:21;18.80;99.90
20831;DHT22;10576;53.556;9.868;2022-08-19T00:52:49;18.80;99.90
20831;DHT22;10576;53.556;9.868;2022-08-19T00:55:19;18.80;99.90
20831;DHT22;10576;53.556;9.868;2022-08-19T00:57:53;18.80;99.90
20831;DHT22;10576;53.556;9.868;2022-08-19T01:00:22;18.80;99.90
20831;DHT22;10576;53.556;9.868;2022-08-19T01:02:48;18.80;99.90
20831;DHT22;10576;53.556;9.868;2022-08-19T01:05:18;18.90;99.90
20831;DHT22;10576;53.556;9.868;2022-08-19T01:07:47;18.80;99.90
20831;DHT22;10576;53.556;9.868;2022-08-19T01:10:16;18.80;99.90
20831;DHT22;10576;53.556;9.868;2022-08-19T01:12:45;18.90;99.90
20831;DHT22;10576;53.556;9.868;2022-08-19T01:15:14;18.80;99.90
20831;DHT22;10576;53.556;9.868;2022-08-19T01:17:41;18.90;99.90
20831;DHT22;10576;53.556;9.868;2022-08-19T01:20:13;18.90;99.90
20831;DHT22;10576;53.556;9.868;2022-08-19T01:22:44;18.90;99.90
20831;DHT22;10576;53.556;9.868;2022-08-19T01:25:13;18.90;99.90
20831;DHT22;10576;53.556;9.868;2022-08-19T01:27:43;18.90;99.90
20831;DHT22;10576;53.556;9.868;2022-08-19T01:30:14;18.80;99.90
20831;DHT22;10576;53.556;9.868;2022-08-19T01:32:40;18.90;99.90
20831;DHT22;10576;53.556;9.868;2022-08-19T01:35:06;18.80;99.90
20831;DHT22;10576;53.556;9.868;2022-08-19T01:40:10;18.80;99.90
20831;DHT22;10576;53.556;9.868;2022-08-19T01:42:36;18.80;99.90
20831;DHT22;10576;53.556;9.868;2022-08-19T01:45:03;18.80;99.90
20831;DHT22;10576;53.556;9.868;2022-08-19T01:47:29;18.80;99.90
20831;DHT22;10576;53.556;9.868;2022-08-19T01:49:54;18.80;99.90
20831;DHT22;10576;53.556;9.868;2022-08-19T01:52:21;18.80;99.90
20831;DHT22;10576;53.556;9.868;2022-08-19T01:54:46;18.80;99.90
20831;DHT22;10576;53.556;9.868;2022-08-19T01:57:14;18.80;99.90
20831;DHT22;10576;53.556;9.868;2022-08-19T01:59:41;18.80;99.90
20831;DHT22;10576;53.556;9.868;2022-08-19T02:02:08;18.80;99.90
20831;DHT22;10576;53.556;9.868;2022-08-19T02:04:34;18.80;99.90
20831;DHT22;10576;53.556;9.868;2022-08-19T02:07:01;18.80;99.90
20831;DHT22;10576;53.556;9.868;2022-08-19T02:09:26;18.80;99.90
20831;DHT22;10576;53.556;9.868;2022-08-19T02:11:52;18.80;99.90
20831;DHT22;10576;53.556;9.868;2022-08-19T02:14:18;18.80;99.90
20831;DHT22;10576;53.556;9.868;2022-08-19T02:16:44;18.80;99.90
20831;DHT22;10576;53.556;9.868;2022-08-19T02:19:10;18.80;99.90
20831;DHT22;10576;53.556;9.868;2022-08-19T02:21:36;18.80;99.90
20831;DHT22;10576;53.556;9.868;2022-08-19T02:24:02;18.80;99.90
20831;DHT22;10576;53.556;9.868;2022-08-19T02:26:28;18.80;99.90
20831;DHT22;10576;53.556;9.868;2022-08-19T02:28:54;18.70;99.90
20831;DHT22;10576;53.556;9.868;2022-08-19T02:31:22;18.80;99.90
20831;DHT22;10576;53.556;9.868;2022-08-19T02:33:49;18.70;99.90
20831;DHT22;10576;53.556;9.868;2022-08-19T02:36:16;18.70;99.90
20831;DHT22;10576;53.556;9.868;2022-08-19T02:38:43;18.70;99.90
20831;DHT22;10576;53.556;9.868;2022-08-19T02:41:31;18.70;99.90
20831;DHT22;10576;53.556;9.868;2022-08-19T02:43:59;18.70;99.90
20831;DHT22;10576;53.556;9.868;2022-08-19T02:46:32;18.70;99.90
20831;DHT22;10576;53.556;9.868;2022-08-19T02:49:03;18.60;99.90
20831;DHT22;10576;53.556;9.868;2022-08-19T02:51:42;18.70;99.90
20831;DHT22;10576;53.556;9.868;2022-08-19T02:54:10;18.60;99.90
20831;DHT22;10576;53.556;9.868;2022-08-19T02:56:37;18.60;99.90
20831;DHT22;10576;53.556;9.868;2022-08-19T02:59:04;18.60;99.90
20831;DHT22;10576;53.556;9.868;2022-08-19T03:01:37;18.60;99.90
20831;DHT22;10576;53.556;9.868;2022-08-19T03:04:05;18.60;99.90
20831;DHT22;10576;53.556;9.868;2022-08-19T03:06:33;18.50;99.90
20831;DHT22;10576;53.556;9.868;2022-08-19T03:09:01;18.50;99.90
20831;DHT22;10576;53.556;9.868;2022-08-19T03:11:29;18.50;99.90
20831;DHT22;10576;53.556;9.868;2022-08-19T03:13:56;18.50;99.90
20831;DHT22;10576;53.556;9.868;2022-08-19T03:16:27;18.40;99.90
20831;DHT22;10576;53.556;9.868;2022-08-19T03:18:56;18.40;99.90
20831;DHT22;10576;53.556;9.868;2022-08-19T03:21:24;18.40;99.90
20831;DHT22;10576;53.556;9.868;2022-08-19T03:23:53;18.40;99.90
20831;DHT22;10576;53.556;9.868;2022-08-19T03:26:19;18.40;99.90
20831;DHT22;10576;53.556;9.868;2022-08-19T03:28:45;18.40;99.90
20831;DHT22;10576;53.556;9.868;2022-08-19T03:31:16;18.50;99.90
20831;DHT22;10576;53.556;9.868;2022-08-19T03:33:43;18.50;99.90
20831;DHT22;10576;53.556;9.868;2022-08-19T03:36:18;18.50;99.90
20831;DHT22;10576;53.556;9.868;2022-08-19T03:38:49;18.50;99.90
20831;DHT22;10576;53.556;9.868;2022-08-19T03:41:18;18.40;99.90
20831;DHT22;10576;53.556;9.868;2022-08-19T03:43:45;18.40;99.90
20831;DHT22;10576;53.556;9.868;2022-08-19T03:46:15;18.40;99.90
20831;DHT22;10576;53.556;9.868;2022-08-19T03:48:43;18.40;99.90
20831;DHT22;10576;53.556;9.868;2022-08-19T03:51:20;18.40;99.90
20831;DHT22;10576;53.556;9.868;2022-08-19T03:53:47;18.40;99.90
20831;DHT22;10576;53.556;9.868;2022-08-19T03:56:13;18.40;99.90
20831;DHT22;10576;53.556;9.868;2022-08-19T03:58:39;18.40;99.90
20831;DHT22;10576;53.556;9.868;2022-08-19T04:01:11;18.40;99.90
20831;DHT22;10576;53.556;9.868;2022-08-19T04:03:38;18.40;99.90
20831;DHT22;10576;53.556;9.868;2022-08-19T04:06:12;18.40;99.90
20831;DHT22;10576;53.556;9.868;2022-08-19T04:08:40;18.30;99.90
20831;DHT22;10576;53.556;9.868;2022-08-19T04:11:10;18.30;99.90
20831;DHT22;10576;53.556;9.868;2022-08-19T04:13:37;18.30;99.90
20831;DHT22;10576;53.556;9.868;2022-08-19T04:16:04;18.30;99.90
20831;DHT22;10576;53.556;9.868;2022-08-19T04:18:30;18.30;99.90
20831;DHT22;10576;53.556;9.868;2022-08-19T04:20:55;18.30;99.90
20831;DHT22;10576;53.556;9.868;2022-08-19T04:23:22;18.30;99.90
20831;DHT22;10576;53.556;9.868;2022-08-19T04:25:48;18.20;99.90
20831;DHT22;10576;53.556;9.868;2022-08-19T04:28:15;18.20;99.90
20831;DHT22;10576;53.556;9.868;2022-08-19T04:30:47;18.20;99.90
20831;DHT22;10576;53.556;9.868;2022-08-19T04:33:15;18.20;99.90
20831;DHT22;10576;53.556;9.868;2022-08-19T04:35:44;18.20;99.90
20831;DHT22;10576;53.556;9.868;2022-08-19T04:38:11;18.20;99.90
20831;DHT22;10576;53.556;9.868;2022-08-19T04:40:41;18.20;99.90
20831;DHT22;10576;53.556;9.868;2022-08-19T04:43:26;18.20;99.90
20831;DHT22;10576;53.556;9.868;2022-08-19T04:45:56;18.10;99.90
20831;DHT22;10576;53.556;9.868;2022-08-19T04:48:22;18.10;99.90
20831;DHT22;10576;53.556;9.868;2022-08-19T04:50:52;18.20;99.90
20831;DHT22;10576;53.556;9.868;2022-08-19T04:53:26;18.20;99.90
20831;DHT22;10576;53.556;9.868;2022-08-19T04:55:55;18.20;99.90
20831;DHT22;10576;53.556;9.868;2022-08-19T04:58:22;18.20;99.90
20831;DHT22;10576;53.556;9.868;2022-08-19T05:00:48;18.20;99.90
20831;DHT22;10576;53.556;9.868;2022-08-19T05:03:14;18.10;99.90
20831;DHT22;10576;53.556;9.868;2022-08-19T05:05:43;18.10;99.90
20831;DHT22;10576;53.556;9.868;2022-08-19T05:08:10;18.20;99.90
20831;DHT22;10576;53.556;9.868;2022-08-19T05:10:38;18.10;99.90
20831;DHT22;10576;53.556;9.868;2022-08-19T05:13:04;18.20;99.90
20831;DHT22;10576;53.556;9.868;2022-08-19T05:15:30;18.20;99.90
20831;DHT22;10576;53.556;9.868;2022-08-19T05:17:56;18.10;99.90
20831;DHT22;10576;53.556;9.868;2022-08-19T05:20:40;18.10;99.90
20831;DHT22;10576;53.556;9.868;2022-08-19T05:23:24;18.10;99.90
20831;DHT22;10576;53.556;9.868;2022-08-19T05:25:51;18.10;99.90
20831;DHT22;10576;53.556;9.868;2022-08-19T05:28:18;18.10;99.90
20831;DHT22;10576;53.556;9.868;2022-08-19T05:30:44;18.10;99.90
20831;DHT22;10576;53.556;9.868;2022-08-19T05:33:11;18.10;99.90
20831;DHT22;10576;53.556;9.868;2022-08-19T05:35:38;18.10;99.90
20831;DHT22;10576;53.556;9.868;2022-08-19T05:38:05;18.10;99.90
20831;DHT22;10576;53.556;9.868;2022-08-19T05:40:35;18.10;99.90
20831;DHT22;10576;53.556;9.868;2022-08-19T05:43:03;18.10;99.90
20831;DHT22;10576;53.556;9.868;2022-08-19T05:45:29;18.00;99.90
20831;DHT22;10576;53.556;9.868;2022-08-19T05:47:55;18.00;99.90
20831;DHT22;10576;53.556;9.868;2022-08-19T05:50:21;18.00;99.90
20831;DHT22;10576;53.556;9.868;2022-08-19T05:52:46;18.00;99.90
20831;DHT22;10576;53.556;9.868;2022-08-19T05:55:12;18.00;99.90
20831;DHT22;10576;53.556;9.868;2022-08-19T05:57:38;18.00;99.90
20831;DHT22;10576;53.556;9.868;2022-08-19T06:00:06;18.00;99.90
20831;DHT22;10576;53.556;9.868;2022-08-19T06:02:36;18.00;99.90
20831;DHT22;10576;53.556;9.868;2022-08-19T06:05:04;18.00;99.90
20831;DHT22;10576;53.556;9.868;2022-08-19T06:07:32;18.00;99.90
20831;DHT22;10576;53.556;9.868;2022-08-19T06:09:58;18.00;99.90
20831;DHT22;10576;53.556;9.868;2022-08-19T06:12:24;18.00;99.90
20831;DHT22;10576;53.556;9.868;2022-08-19T06:14:58;18.10;99.90
20831;DHT22;10576;53.556;9.868;2022-08-19T06:17:24;18.00;99.90
20831;DHT22;10576;53.556;9.868;2022-08-19T06:19:51;18.10;99.90
20831;DHT22;10576;53.556;9.868;2022-08-19T06:22:17;18.10;99.90
20831;DHT22;10576;53.556;9.868;2022-08-19T06:24:43;18.10;99.90
20831;DHT22;10576;53.556;9.868;2022-08-19T06:27:09;18.20;99.90
20831;DHT22;10576;53.556;9.868;2022-08-19T06:29:35;18.20;99.90
20831;DHT22;10576;53.556;9.868;2022-08-19T06:32:03;18.20;99.90
20831;DHT22;10576;53.556;9.868;2022-08-19T06:34:31;18.20;99.90
20831;DHT22;10576;53.556;9.868;2022-08-19T06:36:59;18.20;99.90
20831;DHT22;10576;53.556;9.868;2022-08-19T06:39:30;18.10;99.90
20831;DHT22;10576;53.556;9.868;2022-08-19T06:41:58;18.20;99.90
20831;DHT22;10576;53.556;9.868;2022-08-19T06:44:27;18.20;99.90
20831;DHT22;10576;53.556;9.868;2022-08-19T06:46:56;18.20;99.90
20831;DHT22;10576;53.556;9.868;2022-08-19T06:49:22;18.20;99.90
20831;DHT22;10576;53.556;9.868;2022-08-19T06:51:49;18.30;99.90
20831;DHT22;10576;53.556;9.868;2022-08-19T06:54:17;18.30;99.90
20831;DHT22;10576;53.556;9.868;2022-08-19T06:56:43;18.30;99.90
20831;DHT22;10576;53.556;9.868;2022-08-19T06:59:15;18.40;99.90
20831;DHT22;10576;53.556;9.868;2022-08-19T07:01:45;18.40;99.90
20831;DHT22;10576;53.556;9.868;2022-08-19T07:04:14;18.40;99.90
20831;DHT22;10576;53.556;9.868;2022-08-19T07:06:41;18.40;99.90
20831;DHT22;10576;53.556;9.868;2022-08-19T07:09:08;18.40;99.90
20831;DHT22;10576;53.556;9.868;2022-08-19T07:11:34;18.40;99.90
20831;DHT22;10576;53.556;9.868;2022-08-19T07:14:01;18.40;99.90
20831;DHT22;10576;53.556;9.868;2022-08-19T07:16:27;18.50;99.90
20831;DHT22;10576;53.556;9.868;2022-08-19T07:18:53;18.60;99.90
20831;DHT22;10576;53.556;9.868;2022-08-19T07:21:22;18.60;99.90
20831;DHT22;10576;53.556;9.868;2022-08-19T07:23:50;18.60;99.90
20831;DHT22;10576;53.556;9.868;2022-08-19T07:26:22;18.70;99.90
20831;DHT22;10576;53.556;9.868;2022-08-19T07:28:49;18.80;99.90
20831;DHT22;10576;53.556;9.868;2022-08-19T07:31:19;18.90;99.90
20831;DHT22;10576;53.556;9.868;2022-08-19T07:33:46;18.90;99.90
20831;DHT22;10576;53.556;9.868;2022-08-19T07:36:14;18.80;99.90
20831;DHT22;10576;53.556;9.868;2022-08-19T07:38:43;18.90;99.90
20831;DHT22;10576;53.556;9.868;2022-08-19T07:41:11;18.90;99.90
20831;DHT22;10576;53.556;9.868;2022-08-19T07:43:38;18.90;99.90
20831;DHT22;10576;53.556;9.868;2022-08-19T07:46:04;18.90;99.90
20831;DHT22;10576;53.556;9.868;2022-08-19T07:48:30;18.90;99.90
20831;DHT22;10576;53.556;9.868;2022-08-19T07:50:58;18.90;99.90
20831;DHT22;10576;53.556;9.868;2022-08-19T07:53:27;19.00;99.90
20831;DHT22;10576;53.556;9.868;2022-08-19T07:55:53;21.80;99.90
20831;DHT22;10576;53.556;9.868;2022-08-19T07:58:21;19.00;99.90
20831;DHT22;10576;53.556;9.868;2022-08-19T08:00:49;18.90;99.90
20831;DHT22;10576;53.556;9.868;2022-08-19T08:03:16;19.00;99.90
20831;DHT22;10576;53.556;9.868;2022-08-19T08:05:43;19.00;99.90
20831;DHT22;10576;53.556;9.868;2022-08-19T08:08:28;19.10;99.90
20831;DHT22;10576;53.556;9.868;2022-08-19T08:10:57;19.10;99.90
20831;DHT22;10576;53.556;9.868;2022-08-19T08:13:23;19.10;99.90
20831;DHT22;10576;53.556;9.868;2022-08-19T08:15:49;19.20;99.90
20831;DHT22;10576;53.556;9.868;2022-08-19T08:18:15;19.20;99.90
20831;DHT22;10576;53.556;9.868;2022-08-19T08:20:41;19.10;99.90
20831;DHT22;10576;53.556;9.868;2022-08-19T08:23:06;19.10;99.90
20831;DHT22;10576;53.556;9.868;2022-08-19T08:25:55;19.20;99.90
20831;DHT22;10576;53.556;9.868;2022-08-19T08:28:22;19.20;99.90
20831;DHT22;10576;53.556;9.868;2022-08-19T08:30:50;19.10;99.90
20831;DHT22;10576;53.556;9.868;2022-08-19T08:33:25;19.20;99.90
20831;DHT22;10576;53.556;9.868;2022-08-19T08:35:51;19.30;99.90
20831;DHT22;10576;53.556;9.868;2022-08-19T08:38:18;19.30;99.90
20831;DHT22;10576;53.556;9.868;2022-08-19T08:40:50;19.30;99.90
20831;DHT22;10576;53.556;9.868;2022-08-19T08:48:51;19.60;99.90
20831;DHT22;10576;53.556;9.868;2022-08-19T08:51:44;19.70;99.90
20831;DHT22;10576;53.556;9.868;2022-08-19T08:54:16;19.80;99.90
20831;DHT22;10576;53.556;9.868;2022-08-19T08:56:44;19.90;99.90
20831;DHT22;10576;53.556;9.868;2022-08-19T08:59:20;19.90;99.90
20831;DHT22;10576;53.556;9.868;2022-08-19T09:01:47;19.80;99.90
20831;DHT22;10576;53.556;9.868;2022-08-19T09:04:13;19.80;99.90
20831;DHT22;10576;53.556;9.868;2022-08-19T09:09:23;19.90;99.90
20831;DHT22;10576;53.556;9.868;2022-08-19T09:14:50;19.80;99.90
20831;DHT22;10576;53.556;9.868;2022-08-19T09:17:17;19.70;99.90
20831;DHT22;10576;53.556;9.868;2022-08-19T09:19:52;19.60;99.90
20831;DHT22;10576;53.556;9.868;2022-08-19T09:22:19;19.70;99.90
20831;DHT22;10576;53.556;9.868;2022-08-19T09:24:51;19.80;99.90
20831;DHT22;10576;53.556;9.868;2022-08-19T09:27:20;19.80;99.90
20831;DHT22;10576;53.556;9.868;2022-08-19T09:29:46;19.80;99.90
20831;DHT22;10576;53.556;9.868;2022-08-19T09:32:14;19.80;99.90
20831;DHT22;10576;53.556;9.868;2022-08-19T09:34:40;19.70;99.90
20831;DHT22;10576;53.556;9.868;2022-08-19T09:37:05;19.70;99.90
20831;DHT22;10576;53.556;9.868;2022-08-19T09:39:31;19.80;99.90
20831;DHT22;10576;53.556;9.868;2022-08-19T09:41:57;19.70;99.90
20831;DHT22;10576;53.556;9.868;2022-08-19T09:44:23;19.80;99.90
20831;DHT22;10576;53.556;9.868;2022-08-19T09:46:49;19.90;99.90
20831;DHT22;10576;53.556;9.868;2022-08-19T09:49:18;19.90;99.90
20831;DHT22;10576;53.556;9.868;2022-08-19T09:51:45;19.90;99.90
20831;DHT22;10576;53.556;9.868;2022-08-19T09:54:12;19.80;99.90
20831;DHT22;10576;53.556;9.868;2022-08-19T09:56:39;19.80;99.90
20831;DHT22;10576;53.556;9.868;2022-08-19T09:59:05;19.70;99.90
20831;DHT22;10576;53.556;9.868;2022-08-19T10:01:31;19.70;99.90
20831;DHT22;10576;53.556;9.868;2022-08-19T10:03:59;19.70;99.90
20831;DHT22;10576;53.556;9.868;2022-08-19T10:06:27;19.70;99.90
20831;DHT22;10576;53.556;9.868;2022-08-19T10:08:55;19.80;99.90
20831;DHT22;10576;53.556;9.868;2022-08-19T10:11:21;19.90;99.90
20831;DHT22;10576;53.556;9.868;2022-08-19T10:13:47;20.00;99.90
20831;DHT22;10576;53.556;9.868;2022-08-19T10:16:18;19.90;99.90
20831;DHT22;10576;53.556;9.868;2022-08-19T10:18:45;19.90;99.90
20831;DHT22;10576;53.556;9.868;2022-08-19T10:21:16;20.00;99.90
20831;DHT22;10576;53.556;9.868;2022-08-19T10:23:45;20.10;99.90
20831;DHT22;10576;53.556;9.868;2022-08-19T10:26:16;20.10;99.90
20831;DHT22;10576;53.556;9.868;2022-08-19T10:28:42;20.10;99.90
20831;DHT22;10576;53.556;9.868;2022-08-19T10:31:10;19.90;99.90
20831;DHT22;10576;53.556;9.868;2022-08-19T10:33:38;19.90;99.90
20831;DHT22;10576;53.556;9.868;2022-08-19T10:36:17;20.00;99.90
20831;DHT22;10576;53.556;9.868;2022-08-19T10:38:43;20.00;99.90
20831;DHT22;10576;53.556;9.868;2022-08-19T10:41:17;20.10;99.90
20831;DHT22;10576;53.556;9.868;2022-08-19T10:43:44;20.00;99.90
20831;DHT22;10576;53.556;9.868;2022-08-19T10:46:13;20.00;99.90
20831;DHT22;10576;53.556;9.868;2022-08-19T10:48:39;19.80;99.90
20831;DHT22;10576;53.556;9.868;2022-08-19T10:51:05;19.90;99.90
20831;DHT22;10576;53.556;9.868;2022-08-19T10:53:50;20.00;99.90
20831;DHT22;10576;53.556;9.868;2022-08-19T10:56:17;19.90;99.90
20831;DHT22;10576;53.556;9.868;2022-08-19T10:59:03;19.90;99.90
20831;DHT22;10576;53.556;9.868;2022-08-19T11:01:30;19.70;99.90
20831;DHT22;10576;53.556;9.868;2022-08-19T11:04:01;19.90;99.90
20831;DHT22;10576;53.556;9.868;2022-08-19T11:06:27;20.10;99.90
20831;DHT22;10576;53.556;9.868;2022-08-19T11:08:55;20.30;99.90
20831;DHT22;10576;53.556;9.868;2022-08-19T11:11:22;20.70;99.90
20831;DHT22;10576;53.556;9.868;2022-08-19T11:13:48;20.70;99.90
20831;DHT22;10576;53.556;9.868;2022-08-19T11:16:20;20.80;99.90
20831;DHT22;10576;53.556;9.868;2022-08-19T11:18:53;20.70;99.90
20831;DHT22;10576;53.556;9.868;2022-08-19T11:21:27;20.70;99.90
20831;DHT22;10576;53.556;9.868;2022-08-19T11:23:56;20.90;99.90
20831;DHT22;10576;53.556;9.868;2022-08-19T11:26:23;21.10;99.90
20831;DHT22;10576;53.556;9.868;2022-08-19T11:28:49;21.10;99.90
20831;DHT22;10576;53.556;9.868;2022-08-19T11:31:22;21.10;99.90
20831;DHT22;10576;53.556;9.868;2022-08-19T11:33:48;21.10;99.90
20831;DHT22;10576;53.556;9.868;2022-08-19T11:36:18;20.90;99.90
20831;DHT22;10576;53.556;9.868;2022-08-19T11:38:46;20.80;99.90
20831;DHT22;10576;53.556;9.868;2022-08-19T11:41:14;21.00;99.90
20831;DHT22;10576;53.556;9.868;2022-08-19T11:43:40;21.00;99.90
20831;DHT22;10576;53.556;9.868;2022-08-19T11:46:12;21.10;99.90
20831;DHT22;10576;53.556;9.868;2022-08-19T11:48:38;21.00;99.90
20831;DHT22;10576;53.556;9.868;2022-08-19T11:51:16;21.00;99.90
20831;DHT22;10576;53.556;9.868;2022-08-19T11:53:42;20.90;99.90
20831;DHT22;10576;53.556;9.868;2022-08-19T11:56:08;20.90;99.90
20831;DHT22;10576;53.556;9.868;2022-08-19T11:58:35;20.90;99.90
20831;DHT22;10576;53.556;9.868;2022-08-19T12:01:04;21.00;99.90
20831;DHT22;10576;53.556;9.868;2022-08-19T12:03:30;21.00;99.90
20831;DHT22;10576;53.556;9.868;2022-08-19T12:05:56;21.10;99.90
20831;DHT22;10576;53.556;9.868;2022-08-19T12:08:22;21.30;99.90
20831;DHT22;10576;53.556;9.868;2022-08-19T12:10:48;21.60;99.90
20831;DHT22;10576;53.556;9.868;2022-08-19T12:13:14;21.90;99.90
20831;DHT22;10576;53.556;9.868;2022-08-19T12:15:44;22.10;99.90
20831;DHT22;10576;53.556;9.868;2022-08-19T12:18:11;22.50;99.90
20831;DHT22;10576;53.556;9.868;2022-08-19T12:20:40;22.90;99.90
20831;DHT22;10576;53.556;9.868;2022-08-19T12:23:08;22.90;99.90
20831;DHT22;10576;53.556;9.868;2022-08-19T12:25:43;22.90;99.90
20831;DHT22;10576;53.556;9.868;2022-08-19T12:28:13;23.00;99.90
20831;DHT22;10576;53.556;9.868;2022-08-19T12:30:39;23.10;99.90
20831;DHT22;10576;53.556;9.868;2022-08-19T12:33:04;23.00;99.90
20831;DHT22;10576;53.556;9.868;2022-08-19T12:35:30;23.10;99.90
20831;DHT22;10576;53.556;9.868;2022-08-19T12:37:56;23.20;99.90
20831;DHT22;10576;53.556;9.868;2022-08-19T12:40:21;23.30;99.90
20831;DHT22;10576;53.556;9.868;2022-08-19T12:42:47;23.20;99.90
20831;DHT22;10576;53.556;9.868;2022-08-19T12:45:14;23.30;99.90
20831;DHT22;10576;53.556;9.868;2022-08-19T12:47:40;23.20;99.90
20831;DHT22;10576;53.556;9.868;2022-08-19T12:50:06;23.10;99.90
20831;DHT22;10576;53.556;9.868;2022-08-19T12:52:35;23.20;99.90
20831;DHT22;10576;53.556;9.868;2022-08-19T12:55:07;23.20;99.90
20831;DHT22;10576;53.556;9.868;2022-08-19T12:57:34;23.00;99.90
20831;DHT22;10576;53.556;9.868;2022-08-19T13:00:05;23.00;99.90
20831;DHT22;10576;53.556;9.868;2022-08-19T13:02:33;23.00;99.90
20831;DHT22;10576;53.556;9.868;2022-08-19T13:05:00;23.10;99.90
20831;DHT22;10576;53.556;9.868;2022-08-19T13:07:26;23.10;99.90
20831;DHT22;10576;53.556;9.868;2022-08-19T13:09:52;23.20;99.90
20831;DHT22;10576;53.556;9.868;2022-08-19T13:12:18;23.30;99.90
20831;DHT22;10576;53.556;9.868;2022-08-19T13:14:45;23.20;99.90
20831;DHT22;10576;53.556;9.868;2022-08-19T13:17:15;23.30;99.90
20831;DHT22;10576;53.556;9.868;2022-08-19T13:19:41;23.50;99.90
20831;DHT22;10576;53.556;9.868;2022-08-19T13:22:06;23.50;99.90
20831;DHT22;10576;53.556;9.868;2022-08-19T13:24:32;23.50;99.90
20831;DHT22;10576;53.556;9.868;2022-08-19T13:27:02;23.40;99.90
20831;DHT22;10576;53.556;9.868;2022-08-19T13:29:27;23.40;99.90
20831;DHT22;10576;53.556;9.868;2022-08-19T13:32:11;23.40;99.90
20831;DHT22;10576;53.556;9.868;2022-08-19T13:34:56;23.30;99.90
20831;DHT22;10576;53.556;9.868;2022-08-19T13:37:21;23.00;99.90
20831;DHT22;10576;53.556;9.868;2022-08-19T13:40:08;22.90;99.90
20831;DHT22;10576;53.556;9.868;2022-08-19T13:42:41;23.10;99.90
20831;DHT22;10576;53.556;9.868;2022-08-19T13:45:07;23.10;99.90
20831;DHT22;10576;53.556;9.868;2022-08-19T13:47:34;23.20;99.90
20831;DHT22;10576;53.556;9.868;2022-08-19T13:50:03;23.10;99.90
20831;DHT22;10576;53.556;9.868;2022-08-19T13:52:29;23.10;99.90
20831;DHT22;10576;53.556;9.868;2022-08-19T13:54:54;23.00;99.90
20831;DHT22;10576;53.556;9.868;2022-08-19T13:57:20;23.10;99.90
20831;DHT22;10576;53.556;9.868;2022-08-19T13:59:46;23.10;99.90
20831;DHT22;10576;53.556;9.868;2022-08-19T14:02:11;23.10;99.90
20831;DHT22;10576;53.556;9.868;2022-08-19T14:04:37;23.10;99.90
20831;DHT22;10576;53.556;9.868;2022-08-19T14:07:03;23.00;99.90
20831;DHT22;10576;53.556;9.868;2022-08-19T14:09:30;23.00;99.90
20831;DHT22;10576;53.556;9.868;2022-08-19T14:11:56;22.90;99.90
20831;DHT22;10576;53.556;9.868;2022-08-19T14:14:21;23.00;99.90
20831;DHT22;10576;53.556;9.868;2022-08-19T14:16:48;23.00;99.90
20831;DHT22;10576;53.556;9.868;2022-08-19T14:19:14;23.00;99.90
20831;DHT22;10576;53.556;9.868;2022-08-19T14:21:40;23.10;99.90
20831;DHT22;10576;53.556;9.868;2022-08-19T14:24:07;23.10;99.90
20831;DHT22;10576;53.556;9.868;2022-08-19T14:26:32;23.20;99.90
20831;DHT22;10576;53.556;9.868;2022-08-19T14:28:58;23.20;99.90
20831;DHT22;10576;53.556;9.868;2022-08-19T14:31:24;23.20;99.90
20831;DHT22;10576;53.556;9.868;2022-08-19T14:33:51;23.20;99.90
20831;DHT22;10576;53.556;9.868;2022-08-19T14:36:18;23.20;99.90
20831;DHT22;10576;53.556;9.868;2022-08-19T14:38:46;23.10;99.90
20831;DHT22;10576;53.556;9.868;2022-08-19T14:41:21;23.10;99.90
20831;DHT22;10576;53.556;9.868;2022-08-19T14:43:49;23.10;99.90
20831;DHT22;10576;53.556;9.868;2022-08-19T14:46:21;23.10;99.90
20831;DHT22;10576;53.556;9.868;2022-08-19T14:48:48;23.10;99.90
20831;DHT22;10576;53.556;9.868;2022-08-19T14:51:17;23.00;99.90
20831;DHT22;10576;53.556;9.868;2022-08-19T14:53:43;22.90;99.90
20831;DHT22;10576;53.556;9.868;2022-08-19T14:56:11;23.00;99.90
20831;DHT22;10576;53.556;9.868;2022-08-19T14:58:38;23.00;99.90
20831;DHT22;10576;53.556;9.868;2022-08-19T15:01:07;23.00;99.90
20831;DHT22;10576;53.556;9.868;2022-08-19T15:03:33;23.10;99.90
20831;DHT22;10576;53.556;9.868;2022-08-19T15:06:03;23.10;99.90
20831;DHT22;10576;53.556;9.868;2022-08-19T15:08:31;23.10;99.90
20831;DHT22;10576;53.556;9.868;2022-08-19T15:10:57;23.20;99.90
20831;DHT22;10576;53.556;9.868;2022-08-19T15:13:24;23.30;99.90
20831;DHT22;10576;53.556;9.868;2022-08-19T15:15:50;23.30;99.90
20831;DHT22;10576;53.556;9.868;2022-08-19T15:18:17;23.30;99.90
20831;DHT22;10576;53.556;9.868;2022-08-19T15:20:43;23.30;99.90
20831;DHT22;10576;53.556;9.868;2022-08-19T15:23:10;23.40;99.90
20831;DHT22;10576;53.556;9.868;2022-08-19T15:25:36;23.30;99.90
20831;DHT22;10576;53.556;9.868;2022-08-19T15:28:02;23.20;99.90
20831;DHT22;10576;53.556;9.868;2022-08-19T15:30:29;23.20;99.90
20831;DHT22;10576;53.556;9.868;2022-08-19T15:32:57;23.20;99.90
20831;DHT22;10576;53.556;9.868;2022-08-19T15:35:23;23.20;99.90
20831;DHT22;10576;53.556;9.868;2022-08-19T15:37:50;23.10;99.90
20831;DHT22;10576;53.556;9.868;2022-08-19T15:40:17;22.90;99.90
20831;DHT22;10576;53.556;9.868;2022-08-19T15:42:42;22.80;99.90
20831;DHT22;10576;53.556;9.868;2022-08-19T15:45:10;22.80;99.90
20831;DHT22;10576;53.556;9.868;2022-08-19T15:47:37;22.80;99.90
20831;DHT22;10576;53.556;9.868;2022-08-19T15:52:32;22.90;99.90